createdAt,value
2018-01-03T00:02:16.951Z,61.53
2018-01-03T00:04:44.578Z,61.67
2018-01-03T00:07:12.227Z,61.52
2018-01-03T00:09:40.003Z,62.12
2018-01-03T00:12:07.548Z,62.40
2018-01-03T00:14:35.110Z,62.50
2018-01-03T00:17:02.973Z,63.11
2018-01-03T00:19:30.541Z,62.93
2018-01-03T00:21:58.093Z,63.55
2018-01-03T00:24:25.661Z,62.81
2018-01-03T00:26:53.211Z,63.51
2018-01-03T00:29:20.762Z,63.43
2018-01-03T00:31:48.321Z,64.58
2018-01-03T00:34:16.030Z,64.23
2018-01-03T00:36:43.573Z,64.10
2018-01-03T00:39:11.156Z,64.69
2018-01-03T00:41:38.689Z,64.50
2018-01-03T00:44:06.227Z,64.75
2018-01-03T00:46:34.006Z,65.12
2018-01-03T00:49:01.553Z,65.94
2018-01-03T00:51:29.109Z,65.47
2018-01-03T00:53:56.978Z,66.14
2018-01-03T00:56:24.534Z,65.73
2018-01-03T00:58:52.087Z,65.39
2018-01-03T01:01:19.654Z,65.39
2018-01-03T01:03:47.212Z,65.32
2018-01-03T01:06:14.758Z,66.56
2018-01-03T01:08:42.365Z,66.10
2018-01-03T01:11:09.908Z,66.60
2018-01-03T01:13:37.450Z,66.70
2018-01-03T01:16:05.050Z,66.29
2018-01-03T01:18:32.598Z,66.42
2018-01-03T01:21:00.134Z,68.17
2018-01-03T01:23:27.864Z,66.95
2018-01-03T01:25:55.394Z,68.04
2018-01-03T01:28:22.925Z,67.31
2018-01-03T01:30:50.976Z,67.12
2018-01-03T01:33:18.519Z,66.98
2018-01-03T01:35:46.095Z,67.61
2018-01-03T01:38:13.702Z,67.47
2018-01-03T01:40:41.238Z,66.48
2018-01-03T01:43:08.774Z,67.86
2018-01-03T01:45:36.341Z,68.32
2018-01-03T01:48:03.877Z,68.12
2018-01-03T01:50:31.406Z,68.24
2018-01-03T01:52:59.214Z,67.71
2018-01-03T01:55:26.772Z,67.55
2018-01-03T01:57:55.251Z,68.48
2018-01-03T02:00:22.838Z,68.93
2018-01-03T02:02:50.373Z,68.82
2018-01-03T02:05:17.923Z,68.17
2018-01-03T02:07:45.695Z,68.36
2018-01-03T02:10:13.251Z,67.72
2018-01-03T02:12:40.815Z,67.89
2018-01-03T02:15:08.923Z,68.02
2018-01-03T02:17:36.651Z,67.49
2018-01-03T02:20:04.616Z,67.04
2018-01-03T02:22:33.199Z,66.67
2018-01-03T02:25:00.759Z,67.52
2018-01-03T02:27:28.320Z,67.64
2018-01-03T02:29:56.904Z,67.55
2018-01-03T02:32:24.449Z,68.01
2018-01-03T02:34:52.002Z,68.18
2018-01-03T02:37:19.578Z,67.98
2018-01-03T02:39:47.139Z,67.62
2018-01-03T02:42:14.800Z,68.04
2018-01-03T02:44:42.769Z,68.33
2018-01-03T02:47:10.374Z,69.01
2018-01-03T02:49:37.912Z,69.20
2018-01-03T02:52:05.486Z,68.10
2018-01-03T02:54:33.029Z,69.01
2018-01-03T02:57:00.561Z,68.14
2018-01-03T02:59:28.331Z,67.46
2018-01-03T03:01:55.887Z,68.58
2018-01-03T03:04:23.435Z,67.87
2018-01-03T03:06:51.312Z,68.61
2018-01-03T03:09:18.873Z,66.78
2018-01-03T03:11:46.413Z,67.98
2018-01-03T03:14:14.297Z,66.89
2018-01-03T03:16:41.853Z,67.38
2018-01-03T03:19:09.401Z,67.21
2018-01-03T03:21:37.177Z,67.64
2018-01-03T03:24:04.738Z,67.70
2018-01-03T03:26:32.296Z,67.83
2018-01-03T03:28:59.878Z,66.40
2018-01-03T03:31:27.405Z,67.10
2018-01-03T03:33:55.278Z,67.79
2018-01-03T03:36:23.161Z,67.03
2018-01-03T03:38:50.698Z,67.03
2018-01-03T03:41:18.267Z,66.90
2018-01-03T03:43:46.091Z,66.94
2018-01-03T03:46:13.629Z,67.72
2018-01-03T03:48:41.178Z,67.11
2018-01-03T03:51:08.912Z,67.27
2018-01-03T03:53:36.470Z,67.05
2018-01-03T03:56:04.017Z,66.72
2018-01-03T03:58:31.896Z,66.18
2018-01-03T04:00:59.456Z,66.44
2018-01-03T04:03:27.005Z,67.21
2018-01-03T04:05:54.582Z,67.37
2018-01-03T04:08:22.117Z,67.04
2018-01-03T04:10:49.655Z,67.16
2018-01-03T04:13:17.455Z,66.60
2018-01-03T04:15:45.029Z,66.14
2018-01-03T04:18:12.578Z,67.79
2018-01-03T04:20:40.353Z,66.64
2018-01-03T04:23:07.905Z,67.18
2018-01-03T04:25:35.456Z,65.98
2018-01-03T04:28:03.116Z,66.47
2018-01-03T04:30:30.661Z,66.89
2018-01-03T04:32:58.226Z,66.89
2018-01-03T04:35:26.003Z,66.10
2018-01-03T04:37:53.556Z,65.69
2018-01-03T04:40:21.106Z,65.47
2018-01-03T04:42:48.796Z,66.27
2018-01-03T04:45:16.336Z,65.90
2018-01-03T04:47:43.897Z,65.48
2018-01-03T04:50:11.481Z,65.15
2018-01-03T04:52:39.017Z,65.81
2018-01-03T04:55:06.563Z,65.09
2018-01-03T04:57:34.237Z,65.74
2018-01-03T05:00:01.795Z,66.00
2018-01-03T05:02:29.354Z,66.41
2018-01-03T05:04:56.920Z,64.57
2018-01-03T05:07:24.473Z,65.66
2018-01-03T05:09:52.088Z,65.72
2018-01-03T05:12:19.677Z,65.95
2018-01-03T05:14:47.226Z,65.49
2018-01-03T05:17:14.811Z,66.76
2018-01-03T05:19:42.404Z,67.68
2018-01-03T05:22:09.951Z,69.00
2018-01-03T05:24:37.496Z,70.18
2018-01-03T05:27:05.077Z,71.04
2018-01-03T05:29:32.625Z,70.83
2018-01-03T05:32:00.165Z,70.42
2018-01-03T05:34:27.761Z,70.63
2018-01-03T05:36:55.305Z,70.32
2018-01-03T05:39:22.846Z,70.31
2018-01-03T05:41:50.605Z,69.63
2018-01-03T05:44:18.149Z,68.93
2018-01-03T05:46:45.728Z,68.86
2018-01-03T05:49:13.309Z,68.45
2018-01-03T05:51:40.856Z,68.46
2018-01-03T05:54:08.407Z,68.03
2018-01-03T05:56:36.372Z,68.45
2018-01-03T05:59:03.931Z,67.93
2018-01-03T06:01:31.492Z,67.94
2018-01-03T06:03:59.355Z,67.04
2018-01-03T06:06:26.920Z,67.25
2018-01-03T06:08:54.473Z,66.53
2018-01-03T06:11:22.734Z,67.84
2018-01-03T06:13:50.281Z,68.24
2018-01-03T06:16:17.868Z,70.08
2018-01-03T06:18:45.629Z,70.83
2018-01-03T06:21:13.204Z,70.52
2018-01-03T06:23:40.749Z,70.38
2018-01-03T06:26:08.721Z,70.45
2018-01-03T06:28:36.279Z,70.29
2018-01-03T06:31:03.833Z,70.54
2018-01-03T06:33:31.701Z,70.37
2018-01-03T06:35:59.250Z,69.48
2018-01-03T06:38:26.793Z,69.69
2018-01-03T06:40:54.505Z,69.05
2018-01-03T06:43:22.042Z,69.39
2018-01-03T06:45:49.603Z,69.07
2018-01-03T06:48:17.366Z,69.02
2018-01-03T06:50:44.910Z,69.07
2018-01-03T06:53:12.445Z,68.98
2018-01-03T06:55:40.158Z,67.15
2018-01-03T06:58:07.686Z,66.08
2018-01-03T07:00:35.263Z,65.81
2018-01-03T07:03:04.049Z,67.22
2018-01-03T07:05:31.598Z,68.56
2018-01-03T07:07:59.168Z,68.57
2018-01-03T07:10:27.137Z,69.46
2018-01-03T07:12:54.691Z,70.04
2018-01-03T07:15:22.255Z,71.70
2018-01-03T07:17:50.222Z,71.97
2018-01-03T07:20:17.783Z,72.96
2018-01-03T07:22:45.373Z,72.39
2018-01-03T07:25:13.190Z,72.44
2018-01-03T07:27:40.742Z,66.78
2018-01-03T07:30:08.466Z,69.92
2018-01-03T07:32:36.428Z,68.55
2018-01-03T07:35:04.990Z,71.37
2018-01-03T07:37:32.546Z,71.97
2018-01-03T07:40:00.187Z,72.24
2018-01-03T07:42:27.759Z,73.03
2018-01-03T07:44:55.356Z,72.92
2018-01-03T07:47:22.926Z,72.17
2018-01-03T07:49:50.474Z,72.28
2018-01-03T07:52:18.055Z,72.69
2018-01-03T07:54:48.113Z,71.91
2018-01-03T07:57:17.259Z,72.36
2018-01-03T07:59:45.349Z,71.86
2018-01-03T08:02:13.665Z,71.74
2018-01-03T08:04:41.205Z,71.60
2018-01-03T08:07:08.891Z,72.59
2018-01-03T08:09:36.444Z,71.86
2018-01-03T08:12:04.041Z,71.96
2018-01-03T08:14:31.757Z,72.05
2018-01-03T08:17:00.350Z,71.52
2018-01-03T08:19:29.133Z,72.43
2018-01-03T08:21:56.897Z,72.37
2018-01-03T08:24:24.461Z,72.27
2018-01-03T08:26:52.796Z,72.84
2018-01-03T08:29:20.600Z,72.11
2018-01-03T08:31:48.260Z,72.81
2018-01-03T08:34:16.132Z,72.41
2018-01-03T08:36:43.924Z,73.68
2018-01-03T08:39:11.554Z,72.83
2018-01-03T08:41:40.139Z,72.39
2018-01-03T08:44:07.917Z,72.41
2018-01-03T08:46:35.455Z,72.25
2018-01-03T08:49:03.019Z,72.26
2018-01-03T08:51:30.626Z,71.70
2018-01-03T08:53:58.174Z,71.20
2018-01-03T08:56:25.725Z,71.82
2018-01-03T08:58:53.457Z,71.64
2018-01-03T09:01:21.020Z,71.32
2018-01-03T09:03:48.579Z,70.38
2018-01-03T09:06:16.567Z,70.05
2018-01-03T09:08:44.618Z,70.08
2018-01-03T09:11:12.177Z,69.93
2018-01-03T09:13:39.966Z,70.28
2018-01-03T09:16:07.502Z,70.42
2018-01-03T09:18:35.046Z,70.44
2018-01-03T09:21:02.621Z,70.49
2018-01-03T09:23:30.188Z,70.64
2018-01-03T09:25:57.730Z,70.62
2018-01-03T09:28:25.395Z,70.62
2018-01-03T09:30:52.958Z,70.80
2018-01-03T09:33:20.523Z,70.52
2018-01-03T09:35:48.303Z,70.61
2018-01-03T09:38:15.842Z,71.39
2018-01-03T09:40:43.603Z,72.83
2018-01-03T09:43:11.575Z,72.90
2018-01-03T09:45:39.131Z,71.97
2018-01-03T09:48:06.691Z,71.68
2018-01-03T09:50:34.287Z,71.64
2018-01-03T09:53:01.831Z,69.90
2018-01-03T09:55:29.370Z,69.20
2018-01-03T09:57:57.438Z,69.64
2018-01-03T10:00:24.985Z,69.26
2018-01-03T10:02:52.598Z,68.48
2018-01-03T10:05:20.450Z,69.12
2018-01-03T10:07:47.981Z,68.79
2018-01-03T10:10:15.567Z,68.65
2018-01-03T10:12:43.140Z,68.46
2018-01-03T10:15:10.678Z,69.95
2018-01-03T10:17:38.210Z,70.78
2018-01-03T10:20:05.818Z,70.82
2018-01-03T10:22:33.438Z,71.88
2018-01-03T10:25:01.054Z,71.90
2018-01-03T10:27:28.969Z,70.98
2018-01-03T10:29:56.514Z,71.84
2018-01-03T10:32:24.062Z,70.89
2018-01-03T10:34:51.958Z,70.83
2018-01-03T10:37:19.497Z,70.99
2018-01-03T10:39:47.030Z,71.04
2018-01-03T10:44:47.074Z,70.01
2018-01-03T10:47:15.397Z,68.65
2018-01-03T10:49:43.093Z,68.35
2018-01-03T10:52:10.999Z,68.01
2018-01-03T10:54:38.506Z,67.10
2018-01-03T10:57:06.009Z,66.84
2018-01-03T10:59:34.504Z,66.74
2018-01-03T11:02:02.267Z,67.36
2018-01-03T11:04:29.781Z,67.29
2018-01-03T11:06:57.460Z,67.14
2018-01-03T11:09:25.169Z,67.42
2018-01-03T11:11:52.724Z,66.57
2018-01-03T11:14:21.161Z,66.81
2018-01-03T11:16:48.750Z,66.13
2018-01-03T11:19:16.299Z,65.33
2018-01-03T11:21:44.070Z,61.46
2018-01-03T11:24:11.569Z,60.19
2018-01-03T11:26:39.209Z,61.47
2018-01-03T11:29:07.136Z,60.89
2018-01-03T11:31:34.645Z,57.26
2018-01-03T11:34:02.174Z,56.04
2018-01-03T11:36:29.840Z,51.03
2018-01-03T11:38:57.394Z,50.53
2018-01-03T11:41:24.910Z,45.98
2018-01-03T11:43:52.709Z,41.78
2018-01-03T11:46:20.213Z,42.38
2018-01-03T11:48:47.734Z,47.70
2018-01-03T11:51:15.465Z,43.28
2018-01-03T11:53:42.969Z,44.38
2018-01-03T11:56:10.473Z,50.04
2018-01-03T11:58:38.453Z,54.00
2018-01-03T12:01:05.969Z,55.99
2018-01-03T12:03:33.498Z,57.55
2018-01-03T12:06:01.345Z,57.42
2018-01-03T12:08:28.900Z,58.66
2018-01-03T12:10:56.437Z,59.05
2018-01-03T12:13:24.117Z,58.75
2018-01-03T12:15:51.625Z,59.31
2018-01-03T12:18:19.141Z,57.63
2018-01-03T12:20:47.230Z,59.65
2018-01-03T12:23:14.802Z,57.39
2018-01-03T12:25:42.353Z,52.47
2018-01-03T12:28:09.934Z,47.43
2018-01-03T12:30:37.789Z,46.33
2018-01-03T12:33:05.340Z,47.41
2018-01-03T12:35:33.307Z,50.40
2018-01-03T12:38:00.874Z,52.39
2018-01-03T12:40:28.523Z,53.75
2018-01-03T12:42:56.592Z,54.33
2018-01-03T12:45:24.098Z,52.91
2018-01-03T12:47:51.609Z,54.30
2018-01-03T12:50:19.271Z,52.89
2018-01-03T12:52:46.830Z,53.68
2018-01-03T12:55:14.358Z,51.56
2018-01-03T12:57:41.947Z,51.78
2018-01-03T13:00:09.449Z,52.22
2018-01-03T13:02:36.958Z,52.34
2018-01-03T13:05:04.871Z,51.31
2018-01-03T13:07:32.429Z,51.79
2018-01-03T13:09:59.947Z,51.30
2018-01-03T13:12:27.506Z,50.91
2018-01-03T13:14:55.159Z,51.36
2018-01-03T13:17:22.673Z,49.99
2018-01-03T13:19:50.226Z,49.50
2018-01-03T13:22:17.742Z,49.02
2018-01-03T13:24:45.610Z,48.14
2018-01-03T13:27:13.190Z,48.67
2018-01-03T13:29:40.692Z,48.56
2018-01-03T13:32:08.286Z,48.70
2018-01-03T13:34:36.053Z,48.54
2018-01-03T13:37:03.608Z,48.48
2018-01-03T13:39:31.579Z,48.31
2018-01-03T13:41:59.330Z,48.78
2018-01-03T13:44:26.868Z,48.04
2018-01-03T13:46:54.522Z,48.30
2018-01-03T13:49:22.332Z,48.54
2018-01-03T13:51:49.887Z,47.90
2018-01-03T13:54:17.556Z,48.10
2018-01-03T13:56:45.144Z,47.28
2018-01-03T13:59:12.649Z,46.91
2018-01-03T14:01:40.172Z,47.24
2018-01-03T14:04:08.312Z,46.61
2018-01-03T14:06:35.969Z,47.17
2018-01-03T14:09:03.517Z,46.76
2018-01-03T14:11:32.266Z,46.72
2018-01-03T14:14:00.674Z,46.87
2018-01-03T14:16:28.187Z,46.83
2018-01-03T14:18:55.903Z,47.26
2018-01-03T14:21:23.461Z,47.94
2018-01-03T14:23:51.124Z,47.28
2018-01-03T14:26:18.764Z,47.31
2018-01-03T14:28:46.465Z,47.94
2018-01-03T14:31:14.009Z,47.30
2018-01-03T14:33:41.749Z,47.68
2018-01-03T14:36:09.257Z,48.43
2018-01-03T14:38:36.777Z,48.96
2018-01-03T14:41:05.368Z,49.16
2018-01-03T14:43:32.928Z,49.54
2018-01-03T14:46:00.433Z,49.44
2018-01-03T14:48:28.243Z,48.62
2018-01-03T14:50:55.861Z,49.20
2018-01-03T14:53:23.368Z,49.24
2018-01-03T14:55:51.337Z,49.22
2018-01-03T14:58:18.999Z,49.59
2018-01-03T15:00:46.524Z,49.58
2018-01-03T15:03:14.615Z,50.01
2018-01-03T15:05:42.392Z,50.39
2018-01-03T15:08:09.956Z,50.21
2018-01-03T15:10:37.506Z,50.13
2018-01-03T15:13:05.013Z,50.00
2018-01-03T15:15:32.557Z,50.49
2018-01-03T15:18:00.393Z,50.46
2018-01-03T15:20:27.952Z,49.97
2018-01-03T15:22:55.480Z,50.00
2018-01-03T15:25:23.691Z,49.77
2018-01-03T15:27:51.212Z,49.91
2018-01-03T15:30:18.729Z,50.64
2018-01-03T15:32:46.466Z,49.99
2018-01-03T15:35:14.335Z,50.17
2018-01-03T15:37:42.504Z,50.11
2018-01-03T15:40:10.371Z,50.07
2018-01-03T15:42:38.134Z,49.88
2018-01-03T15:45:05.693Z,49.87
2018-01-03T15:47:33.728Z,50.26
2018-01-03T15:50:01.285Z,50.03
2018-01-03T15:52:28.985Z,50.12
2018-01-03T15:54:56.904Z,50.06
2018-01-03T15:57:24.804Z,50.34
2018-01-03T15:59:52.439Z,51.01
2018-01-03T16:02:20.352Z,53.29
2018-01-03T16:04:47.901Z,55.46
2018-01-03T16:07:15.505Z,60.11
2018-01-03T16:09:43.240Z,62.05
2018-01-03T16:12:10.746Z,64.28
2018-01-03T16:14:38.554Z,64.93
2018-01-03T16:17:06.624Z,65.72
2018-01-03T16:19:34.491Z,65.76
2018-01-03T16:22:02.348Z,64.41
2018-01-03T16:24:29.924Z,64.50
2018-01-03T16:26:57.490Z,64.25
2018-01-03T16:29:25.343Z,63.46
2018-01-03T16:31:53.107Z,62.33
2018-01-03T16:34:20.822Z,62.34
2018-01-03T16:36:48.535Z,59.71
2018-01-03T16:39:18.138Z,59.07
2018-01-03T16:41:46.023Z,58.19
2018-01-03T16:44:14.178Z,57.45
2018-01-03T16:46:43.135Z,54.79
2018-01-03T16:49:14.809Z,53.79
2018-01-03T16:54:56.633Z,53.37
2018-01-03T16:57:24.504Z,52.33
2018-01-03T16:59:54.068Z,51.54
2018-01-03T17:02:21.730Z,51.01
2018-01-03T17:04:49.964Z,50.38
2018-01-03T17:07:17.931Z,50.44
2018-01-03T17:09:45.795Z,49.46
2018-01-03T17:12:13.879Z,49.72
2018-01-03T17:14:41.938Z,49.47
2018-01-03T17:17:10.578Z,50.02
2018-01-03T17:19:38.473Z,50.27
2018-01-03T17:22:06.492Z,50.20
2018-01-03T17:24:34.314Z,49.53
2018-01-03T17:27:02.447Z,49.93
2018-01-03T17:29:30.457Z,49.88
2018-01-03T17:31:58.424Z,49.63
2018-01-03T17:34:26.392Z,49.21
2018-01-03T17:36:54.262Z,49.54
2018-01-03T17:39:22.227Z,49.51
2018-01-03T17:41:50.196Z,49.76
2018-01-03T17:44:17.960Z,49.83
2018-01-03T17:46:45.725Z,49.80
2018-01-03T17:49:13.590Z,49.38
2018-01-03T17:51:41.380Z,49.68
2018-01-03T17:54:09.017Z,49.94
2018-01-03T17:56:36.895Z,49.95
2018-01-03T17:59:04.544Z,50.40
2018-01-03T18:01:32.409Z,50.46
2018-01-03T18:04:00.583Z,50.12
2018-01-03T18:06:28.356Z,50.33
2018-01-03T18:08:55.973Z,51.01
2018-01-03T18:11:23.796Z,50.59
2018-01-03T18:13:51.471Z,50.81
2018-01-03T18:16:19.198Z,50.55
2018-01-03T18:18:46.846Z,51.52
2018-01-03T18:21:14.635Z,51.00
2018-01-03T18:23:42.379Z,51.05
2018-01-03T18:26:10.357Z,51.18
2018-01-03T18:28:38.036Z,50.83
2018-01-03T18:31:05.600Z,50.09
2018-01-03T18:33:33.648Z,50.84
2018-01-03T18:36:01.514Z,50.09
2018-01-03T18:38:30.320Z,50.77
2018-01-03T18:40:58.067Z,51.10
2018-01-03T18:43:26.649Z,51.11
2018-01-03T18:45:54.918Z,50.64
2018-01-03T18:48:22.673Z,50.53
2018-01-03T18:50:50.293Z,50.30
2018-01-03T18:53:17.811Z,50.54
2018-01-03T18:55:45.376Z,50.15
2018-01-03T18:58:12.904Z,51.86
2018-01-03T19:00:40.595Z,51.68
2018-01-03T19:03:08.671Z,52.52
2018-01-03T19:05:36.628Z,51.51
2018-01-03T19:08:04.288Z,51.42
2018-01-03T19:10:31.983Z,52.80
2018-01-03T19:12:59.508Z,52.31
2018-01-03T19:15:27.376Z,51.34
2018-01-03T19:17:55.344Z,51.54
2018-01-03T19:20:23.108Z,50.99
2018-01-03T19:22:50.983Z,50.99
2018-01-03T19:25:19.050Z,50.72
2018-01-03T19:27:46.912Z,50.67
2018-01-03T19:30:14.679Z,50.47
2018-01-03T19:32:42.747Z,50.46
2018-01-03T19:35:10.682Z,50.02
2018-01-03T19:37:38.496Z,50.00
2018-01-03T19:40:06.550Z,50.39
2018-01-03T19:42:34.534Z,50.39
2018-01-03T19:45:02.385Z,50.26
2018-01-03T19:47:31.318Z,50.01
2018-01-03T19:49:59.062Z,50.07
2018-01-03T19:52:26.807Z,50.69
2018-01-03T19:54:54.944Z,50.16
2018-01-03T19:57:22.962Z,50.37
2018-01-03T19:59:50.813Z,50.83
2018-01-03T20:02:19.996Z,50.25
2018-01-03T20:04:47.978Z,50.44
2018-01-03T20:07:16.665Z,50.65
2018-01-03T20:09:44.469Z,50.47
2018-01-03T20:12:12.192Z,50.36
2018-01-03T20:14:39.955Z,50.15
2018-01-03T20:17:08.436Z,50.22
2018-01-03T20:19:36.064Z,50.24
2018-01-03T20:22:04.375Z,49.63
2018-01-03T20:24:32.140Z,49.48
2018-01-03T20:27:00.486Z,49.50
2018-01-03T20:29:28.299Z,49.81
2018-01-03T20:31:56.054Z,50.09
2018-01-03T20:34:23.788Z,50.27
2018-01-03T20:36:51.588Z,50.43
2018-01-03T20:39:20.360Z,50.59
2018-01-03T20:41:48.125Z,50.10
2018-01-03T20:44:16.094Z,50.19
2018-01-03T20:46:44.966Z,49.71
2018-01-03T20:49:13.057Z,49.86
2018-01-03T20:51:40.818Z,49.74
2018-01-03T20:54:08.992Z,50.26
2018-01-03T20:56:36.962Z,49.94
2018-01-03T20:59:04.739Z,50.07
2018-01-03T21:01:32.898Z,49.87
2018-01-03T21:04:00.868Z,49.70
2018-01-03T21:06:29.201Z,49.48
2018-01-03T21:08:57.842Z,49.57
2018-01-03T21:11:25.702Z,49.65
2018-01-03T21:13:53.664Z,50.02
2018-01-03T21:16:21.739Z,50.06
2018-01-03T21:18:49.704Z,49.69
2018-01-03T21:21:17.330Z,49.00
2018-01-03T21:23:46.542Z,50.00
2018-01-03T21:26:14.431Z,50.53
2018-01-03T21:28:42.705Z,50.09
2018-01-03T21:31:11.085Z,49.45
2018-01-03T21:33:38.949Z,49.82
2018-01-03T21:36:06.739Z,49.30
2018-01-03T21:38:34.891Z,48.86
2018-01-03T21:41:02.679Z,49.33
2018-01-03T21:43:30.519Z,49.37
2018-01-03T21:45:59.491Z,49.01
2018-01-03T21:48:27.172Z,49.58
2018-01-03T21:50:54.834Z,49.68
2018-01-03T21:53:22.599Z,49.79
2018-01-03T21:55:50.361Z,50.94
2018-01-03T21:58:18.201Z,50.79
2018-01-03T22:00:46.109Z,51.88
2018-01-03T22:03:13.958Z,51.89
2018-01-03T22:05:41.622Z,52.79
2018-01-03T22:08:09.537Z,54.12
2018-01-03T22:10:37.262Z,55.12
2018-01-03T22:13:04.814Z,55.89
2018-01-03T22:15:32.780Z,55.05
2018-01-03T22:18:00.321Z,54.64
2018-01-03T22:20:27.898Z,54.76
2018-01-03T22:22:55.456Z,53.80
2018-01-03T22:25:23.005Z,54.01
2018-01-03T22:27:50.598Z,57.16
2018-01-03T22:30:18.567Z,59.53
2018-01-03T22:32:46.103Z,59.86
2018-01-03T22:35:13.610Z,60.67
2018-01-03T22:37:41.233Z,61.32
2018-01-03T22:40:08.782Z,61.04
2018-01-03T22:42:36.285Z,61.24
2018-01-03T22:45:04.101Z,61.84
2018-01-03T22:47:31.605Z,61.20
2018-01-03T22:49:59.112Z,60.65
2018-01-03T22:52:26.681Z,59.59
2018-01-03T22:54:54.177Z,59.00
2018-01-03T22:57:21.801Z,59.08
2018-01-03T22:59:49.385Z,58.58
2018-01-03T23:02:16.898Z,58.59
2018-01-03T23:04:44.475Z,58.55
2018-01-03T23:07:12.005Z,57.65
2018-01-03T23:09:39.535Z,57.43
2018-01-03T23:12:07.037Z,56.61
2018-01-03T23:14:34.732Z,56.50
2018-01-03T23:17:02.272Z,56.45
2018-01-03T23:19:29.772Z,55.94
2018-01-03T23:21:57.595Z,55.64
2018-01-03T23:24:25.558Z,55.00
2018-01-03T23:26:53.069Z,54.48
2018-01-03T23:29:20.609Z,54.64
2018-01-03T23:31:48.106Z,54.78
2018-01-03T23:34:16.516Z,55.04
2018-01-03T23:36:44.385Z,54.23
2018-01-03T23:39:11.889Z,54.49
2018-01-03T23:41:39.398Z,55.02
2018-01-03T23:44:06.944Z,55.46
2018-01-03T23:46:34.558Z,55.44
2018-01-03T23:49:02.058Z,55.00
2018-01-03T23:51:29.843Z,54.41
2018-01-03T23:53:57.427Z,54.19
2018-01-03T23:56:24.958Z,55.03
2018-01-03T23:58:52.720Z,54.70
